Time;durP1;ratioP1;P1;durP2;ratioP2;P2;SDS_P1;SDS_P2;PMS_P1;PMS_P2;Temp;Humidity;BMP_temperature;BMP_pressure;BME280_temperature;BME280_humidity;BME280_pressure;Samples;Min_cycle;Max_cycle;Signal;HPM_P1;HPM_P2
2022/04/06 00:01:40;;;;;;;6.50;3.55;;;;;;;;;;5073243;28;20100;-84
2022/04/06 00:04:06;;;;;;;6.32;3.75;;;;;;;;;;5074836;28;20128;-83
2022/04/06 00:06:33;;;;;;;6.53;4.07;;;;;;;;;;5070647;28;20128;-84
2022/04/06 00:08:59;;;;;;;5.82;3.47;;;;;;;;;;5074348;28;20072;-84
2022/04/06 00:11:26;;;;;;;7.50;3.80;;;;;;;;;;5075949;28;20036;-86
2022/04/06 00:13:53;;;;;;;7.20;3.30;;;;;;;;;;5075133;28;20052;-85
2022/04/06 00:16:20;;;;;;;6.68;4.93;;;;;;;;;;5070046;28;20132;-84
2022/04/06 00:18:47;;;;;;;9.23;3.92;;;;;;;;;;5068228;28;20108;-87
2022/04/06 00:21:14;;;;;;;8.30;3.65;;;;;;;;;;5072809;28;20124;-84
2022/04/06 00:23:41;;;;;;;5.95;3.72;;;;;;;;;;5072528;28;20098;-84
2022/04/06 00:26:07;;;;;;;7.70;4.10;;;;;;;;;;5069723;28;20446;-88
2022/04/06 00:28:34;;;;;;;6.97;4.57;;;;;;;;;;5070641;28;20655;-86
2022/04/06 00:31:00;;;;;;;6.88;4.22;;;;;;;;;;5070626;28;20425;-84
2022/04/06 00:33:29;;;;;;;11.10;4.60;;;;;;;;;;5071804;28;20115;-84
2022/04/06 00:35:56;;;;;;;7.53;4.40;;;;;;;;;;5071872;28;20493;-85
2022/04/06 00:38:23;;;;;;;6.80;3.78;;;;;;;;;;5068083;28;20051;-86
2022/04/06 00:40:49;;;;;;;6.50;3.75;;;;;;;;;;5069534;28;20058;-85
2022/04/06 00:43:16;;;;;;;6.93;4.20;;;;;;;;;;5072744;28;20132;-85
2022/04/06 00:45:43;;;;;;;6.63;4.15;;;;;;;;;;5072733;28;20454;-84
2022/04/06 00:48:10;;;;;;;5.93;3.78;;;;;;;;;;5076945;28;20139;-85
2022/04/06 00:50:41;;;;;;;6.82;4.45;;;;;;;;;;5073788;28;20076;-84
2022/04/06 00:53:08;;;;;;;7.65;5.00;;;;;;;;;;5069892;28;20041;-84
2022/04/06 00:55:37;;;;;;;6.78;3.65;;;;;;;;;;5072165;28;20107;-86
2022/04/06 00:58:04;;;;;;;7.15;3.70;;;;;;;;;;5072972;28;20045;-84
2022/04/06 01:00:31;;;;;;;8.35;4.32;;;;;;;;;;5068868;28;20975;-85
2022/04/06 01:02:58;;;;;;;5.30;3.63;;;;;;;;;;5070838;28;20123;-84
2022/04/06 01:05:26;;;;;;;7.18;4.03;;;;;;;;;;5069000;28;20068;-87
2022/04/06 01:07:59;;;;;;;7.78;5.13;;;;;;;;;;5077138;28;20116;-85
2022/04/06 01:10:25;;;;;;;5.90;3.58;;;;;;;;;;5075176;28;20037;-89
2022/04/06 01:12:52;;;;;;;9.15;4.57;;;;;;;;;;5072890;28;20395;-86
2022/04/06 01:15:19;;;;;;;7.28;4.32;;;;;;;;;;5083387;28;20061;-88
2022/04/06 01:17:45;;;;;;;6.95;4.10;;;;;;;;;;5096851;28;20028;-88
2022/04/06 01:20:13;;;;;;;6.72;4.10;;;;;;;;;;5091651;28;20041;-83
2022/04/06 01:22:42;;;;;;;8.80;3.85;;;;;;;;;;5071802;28;20130;-84
2022/04/06 01:25:09;;;;;;;9.77;4.75;;;;;;;;;;5067807;28;20083;-83
2022/04/06 01:27:35;;;;;;;9.63;5.10;;;;;;;;;;5070449;28;20123;-86
2022/04/06 01:30:02;;;;;;;6.45;3.83;;;;;;;;;;5074238;28;20119;-84
2022/04/06 01:32:32;;;;;;;6.93;4.95;;;;;;;;;;5069525;28;20127;-83
2022/04/06 01:35:00;;;;;;;9.48;4.75;;;;;;;;;;5042478;28;20049;-83
2022/04/06 01:37:28;;;;;;;8.13;4.00;;;;;;;;;;5068660;28;20131;-84
2022/04/06 01:39:57;;;;;;;6.53;4.22;;;;;;;;;;5069626;28;20045;-83
2022/04/06 01:42:23;;;;;;;7.82;4.03;;;;;;;;;;5071660;28;20045;-84
2022/04/06 01:44:51;;;;;;;8.73;4.97;;;;;;;;;;5070707;28;20119;-84
2022/04/06 01:47:19;;;;;;;8.65;4.13;;;;;;;;;;5071435;28;20040;-84
2022/04/06 01:52:31;;;;;;;5.90;3.88;;;;;;;;;;5068797;28;20048;-83
2022/04/06 01:55:01;;;;;;;8.00;4.68;;;;;;;;;;5073366;28;20392;-83
2022/04/06 01:57:29;;;;;;;7.22;4.35;;;;;;;;;;5067842;28;20208;-83
2022/04/06 01:59:56;;;;;;;6.20;3.90;;;;;;;;;;5066666;28;20112;-83
2022/04/06 02:02:24;;;;;;;5.63;3.85;;;;;;;;;;5064855;28;20412;-84
2022/04/06 02:04:50;;;;;;;7.38;4.35;;;;;;;;;;5070034;28;20148;-86
2022/04/06 02:07:17;;;;;;;8.35;4.30;;;;;;;;;;5062745;28;20144;-85
2022/04/06 02:09:44;;;;;;;6.85;4.18;;;;;;;;;;5063365;28;20040;-84
2022/04/06 02:12:13;;;;;;;7.03;4.82;;;;;;;;;;5070004;28;20140;-86
2022/04/06 02:14:40;;;;;;;8.45;4.40;;;;;;;;;;5070512;28;20115;-84
2022/04/06 02:17:07;;;;;;;6.68;3.97;;;;;;;;;;5070743;28;20127;-85
2022/04/06 02:19:34;;;;;;;6.43;3.60;;;;;;;;;;5070324;28;20047;-84
2022/04/06 02:22:01;;;;;;;6.40;3.47;;;;;;;;;;5068583;28;20456;-84
2022/04/06 02:24:27;;;;;;;6.70;3.78;;;;;;;;;;5067274;28;20110;-85
2022/04/06 02:26:54;;;;;;;7.50;4.03;;;;;;;;;;5066957;28;20561;-86
2022/04/06 02:29:22;;;;;;;7.60;4.00;;;;;;;;;;5069278;28;20129;-84
2022/04/06 02:31:49;;;;;;;6.25;3.85;;;;;;;;;;5069470;28;20124;-84
2022/04/06 02:34:16;;;;;;;7.53;3.88;;;;;;;;;;5069155;28;20047;-85
2022/04/06 02:36:42;;;;;;;6.82;3.50;;;;;;;;;;5068976;28;21832;-83
2022/04/06 02:39:09;;;;;;;7.22;3.47;;;;;;;;;;5066755;28;20760;-83
2022/04/06 02:41:35;;;;;;;4.85;3.35;;;;;;;;;;5069970;28;20167;-84
2022/04/06 02:44:02;;;;;;;6.40;3.28;;;;;;;;;;5072270;28;21918;-84
2022/04/06 02:46:30;;;;;;;5.18;3.15;;;;;;;;;;5069608;28;20131;-84
2022/04/06 02:49:05;;;;;;;6.47;3.30;;;;;;;;;;5068647;28;20055;-86
2022/04/06 02:51:32;;;;;;;4.50;2.67;;;;;;;;;;5066891;28;20104;-83
2022/04/06 02:53:58;;;;;;;6.45;3.20;;;;;;;;;;5070737;28;20036;-84
2022/04/06 02:56:25;;;;;;;4.93;3.15;;;;;;;;;;5067437;28;20108;-85
2022/04/06 02:58:51;;;;;;;5.28;2.53;;;;;;;;;;5068114;28;20127;-85
2022/04/06 03:01:18;;;;;;;5.40;3.33;;;;;;;;;;5067844;28;20140;-85
2022/04/06 03:03:46;;;;;;;5.75;3.13;;;;;;;;;;5072844;28;20128;-85
2022/04/06 03:06:12;;;;;;;5.15;3.00;;;;;;;;;;5067542;28;20489;-85
2022/04/06 03:08:39;;;;;;;7.05;3.25;;;;;;;;;;5069521;28;21775;-84
2022/04/06 03:11:06;;;;;;;5.05;3.10;;;;;;;;;;5069538;28;20560;-83
2022/04/06 03:13:32;;;;;;;7.07;3.50;;;;;;;;;;5070246;28;20152;-83
2022/04/06 03:15:59;;;;;;;5.60;3.20;;;;;;;;;;5069908;28;20068;-85
2022/04/06 03:18:26;;;;;;;5.18;3.00;;;;;;;;;;5068718;28;20490;-84
2022/04/06 03:20:54;;;;;;;5.13;2.78;;;;;;;;;;5062674;28;20044;-85
2022/04/06 03:23:21;;;;;;;6.30;3.42;;;;;;;;;;5066912;28;20510;-83
2022/04/06 03:25:48;;;;;;;5.50;3.40;;;;;;;;;;5066215;28;20044;-83
2022/04/06 03:28:15;;;;;;;6.32;3.53;;;;;;;;;;5072154;28;20119;-83
2022/04/06 03:30:42;;;;;;;5.13;3.10;;;;;;;;;;5068188;28;20139;-84
2022/04/06 03:33:09;;;;;;;5.03;2.88;;;;;;;;;;5068509;28;20108;-85
2022/04/06 03:35:35;;;;;;;8.68;3.40;;;;;;;;;;5068349;28;20556;-84
2022/04/06 03:38:03;;;;;;;6.72;3.85;;;;;;;;;;5070127;28;20064;-85
2022/04/06 03:40:30;;;;;;;5.75;3.50;;;;;;;;;;5073240;28;20484;-85
2022/04/06 03:42:57;;;;;;;6.75;3.90;;;;;;;;;;5072658;28;20072;-84
2022/04/06 03:45:23;;;;;;;5.90;3.58;;;;;;;;;;5068539;28;20143;-83
2022/04/06 03:47:50;;;;;;;7.72;3.75;;;;;;;;;;5073779;28;20100;-84
2022/04/06 03:50:17;;;;;;;6.60;4.05;;;;;;;;;;5078886;28;20067;-87
2022/04/06 03:52:43;;;;;;;7.75;4.03;;;;;;;;;;5082757;28;20041;-85
2022/04/06 03:55:11;;;;;;;6.38;4.00;;;;;;;;;;5090164;28;20041;-87
2022/04/06 03:57:39;;;;;;;6.65;4.43;;;;;;;;;;5081466;28;20029;-85
2022/04/06 04:00:08;;;;;;;6.35;3.60;;;;;;;;;;5071590;28;20143;-85
2022/04/06 04:02:34;;;;;;;9.60;4.47;;;;;;;;;;5072187;28;20556;-84
2022/04/06 04:05:03;;;;;;;7.57;3.60;;;;;;;;;;5064144;28;20088;-86
2022/04/06 04:07:29;;;;;;;6.63;4.07;;;;;;;;;;5062568;28;20052;-85
2022/04/06 04:09:56;;;;;;;6.50;4.00;;;;;;;;;;5069753;28;20040;-84
2022/04/06 04:12:24;;;;;;;6.35;3.72;;;;;;;;;;5062739;28;20036;-87
2022/04/06 04:14:51;;;;;;;6.13;3.95;;;;;;;;;;5063578;28;20128;-83
2022/04/06 04:17:17;;;;;;;7.03;4.10;;;;;;;;;;5066902;28;20564;-87
2022/04/06 04:19:45;;;;;;;5.35;3.53;;;;;;;;;;5066608;28;20079;-84
2022/04/06 04:22:12;;;;;;;6.40;3.67;;;;;;;;;;5069677;28;20036;-84
2022/04/06 04:24:39;;;;;;;5.85;3.67;;;;;;;;;;5065794;28;20510;-83
2022/04/06 04:27:05;;;;;;;6.30;3.92;;;;;;;;;;5068845;28;20128;-85
2022/04/06 04:29:33;;;;;;;7.18;3.72;;;;;;;;;;5068305;28;20532;-84
2022/04/06 04:32:00;;;;;;;7.28;3.83;;;;;;;;;;5068440;28;20485;-83
2022/04/06 04:34:27;;;;;;;6.35;3.67;;;;;;;;;;5069007;28;20052;-83
2022/04/06 04:36:53;;;;;;;7.30;4.00;;;;;;;;;;5071404;28;20119;-83
2022/04/06 04:39:20;;;;;;;6.32;3.85;;;;;;;;;;5067083;28;20609;-84
2022/04/06 04:41:47;;;;;;;5.63;3.65;;;;;;;;;;5071763;28;20093;-84
2022/04/06 04:44:14;;;;;;;6.97;4.28;;;;;;;;;;5063332;28;20128;-83
2022/04/06 04:46:42;;;;;;;6.43;4.00;;;;;;;;;;5068907;28;20123;-85
2022/04/06 04:49:08;;;;;;;7.55;3.72;;;;;;;;;;5069570;28;20147;-85
2022/04/06 04:51:35;;;;;;;8.23;4.22;;;;;;;;;;5070598;28;20045;-87
2022/04/06 04:54:02;;;;;;;6.93;3.53;;;;;;;;;;5067269;28;20053;-85
2022/04/06 04:56:30;;;;;;;8.10;4.43;;;;;;;;;;5073685;28;20066;-88
2022/04/06 04:58:57;;;;;;;7.25;3.95;;;;;;;;;;5076060;28;20048;-86
2022/04/06 05:01:24;;;;;;;6.22;3.60;;;;;;;;;;5074205;28;20362;-82
2022/04/06 05:03:52;;;;;;;7.32;4.00;;;;;;;;;;5066469;28;20264;-85
2022/04/06 05:06:19;;;;;;;8.27;4.72;;;;;;;;;;5065261;28;20053;-83
2022/04/06 05:08:45;;;;;;;6.32;3.90;;;;;;;;;;5071743;28;20112;-85
2022/04/06 05:11:13;;;;;;;6.65;4.55;;;;;;;;;;5073033;28;20716;-84
2022/04/06 05:13:40;;;;;;;5.95;4.00;;;;;;;;;;5075546;28;20577;-85
2022/04/06 05:16:06;;;;;;;7.93;4.80;;;;;;;;;;5075116;28;20120;-85
2022/04/06 05:18:33;;;;;;;6.43;4.03;;;;;;;;;;5076145;28;20479;-86
2022/04/06 05:21:01;;;;;;;6.15;3.97;;;;;;;;;;5075906;28;20061;-85
2022/04/06 05:23:28;;;;;;;7.60;4.32;;;;;;;;;;5077230;28;20094;-84
2022/04/06 05:25:56;;;;;;;7.65;3.85;;;;;;;;;;5076971;28;20549;-83
2022/04/06 05:28:23;;;;;;;9.57;4.25;;;;;;;;;;5076666;28;20076;-84
2022/04/06 05:30:52;;;;;;;7.40;4.18;;;;;;;;;;5077873;28;20071;-84
2022/04/06 05:33:20;;;;;;;7.97;4.25;;;;;;;;;;5076661;28;20403;-84
2022/04/06 05:35:47;;;;;;;6.68;4.00;;;;;;;;;;5077757;28;20072;-84
2022/04/06 05:38:15;;;;;;;9.43;4.30;;;;;;;;;;5075826;28;20448;-85
2022/04/06 05:40:41;;;;;;;8.48;3.97;;;;;;;;;;5069864;28;20123;-86
2022/04/06 05:43:09;;;;;;;7.85;3.60;;;;;;;;;;5075990;28;20080;-85
2022/04/06 05:45:38;;;;;;;8.30;4.13;;;;;;;;;;5073118;28;20036;-85
2022/04/06 05:48:06;;;;;;;6.18;3.70;;;;;;;;;;5071882;28;20072;-84
2022/04/06 05:50:32;;;;;;;6.38;4.10;;;;;;;;;;5077066;28;20049;-84
2022/04/06 05:52:59;;;;;;;5.65;3.45;;;;;;;;;;5072075;28;20120;-84
2022/04/06 05:55:27;;;;;;;6.32;4.22;;;;;;;;;;5073163;28;20067;-84
2022/04/06 05:57:54;;;;;;;7.13;4.85;;;;;;;;;;5066776;28;20458;-84
2022/04/06 06:00:21;;;;;;;4.90;3.78;;;;;;;;;;5067994;28;20136;-84
2022/04/06 06:02:47;;;;;;;5.93;4.43;;;;;;;;;;5070658;28;20036;-84
2022/04/06 06:05:14;;;;;;;8.40;4.43;;;;;;;;;;5057837;28;20136;-85
2022/04/06 06:07:40;;;;;;;8.23;4.32;;;;;;;;;;5070971;28;20148;-85
2022/04/06 06:10:08;;;;;;;9.38;4.75;;;;;;;;;;5068954;28;20127;-86
2022/04/06 06:12:36;;;;;;;6.60;4.15;;;;;;;;;;5069569;28;20119;-85
2022/04/06 06:15:04;;;;;;;6.45;3.80;;;;;;;;;;5073302;28;20095;-85
2022/04/06 06:17:30;;;;;;;7.53;3.92;;;;;;;;;;5075100;28;20124;-84
2022/04/06 06:19:57;;;;;;;7.28;4.00;;;;;;;;;;5072144;28;20111;-83
2022/04/06 06:22:23;;;;;;;6.65;4.20;;;;;;;;;;5070031;28;20460;-84
2022/04/06 06:24:50;;;;;;;6.40;3.63;;;;;;;;;;5056967;28;20124;-84
2022/04/06 06:27:19;;;;;;;7.70;4.13;;;;;;;;;;5067090;28;20123;-85
2022/04/06 06:29:49;;;;;;;6.15;4.18;;;;;;;;;;5077505;28;20071;-84
2022/04/06 06:32:15;;;;;;;6.35;4.10;;;;;;;;;;5080299;28;20369;-84
2022/04/06 06:34:42;;;;;;;8.35;4.30;;;;;;;;;;5087696;28;20052;-85
2022/04/06 06:37:10;;;;;;;5.90;3.40;;;;;;;;;;5090540;28;20041;-84
2022/04/06 06:39:37;;;;;;;7.53;4.05;;;;;;;;;;5076700;28;20037;-84
2022/04/06 06:42:04;;;;;;;5.90;3.67;;;;;;;;;;5068336;28;20135;-84
2022/04/06 06:44:31;;;;;;;8.18;4.43;;;;;;;;;;5066061;28;20460;-84
2022/04/06 06:46:59;;;;;;;6.35;4.30;;;;;;;;;;5072599;28;20076;-84
2022/04/06 06:49:26;;;;;;;7.40;4.00;;;;;;;;;;5072626;28;20119;-84
2022/04/06 06:51:52;;;;;;;6.75;4.35;;;;;;;;;;5070869;28;20147;-84
2022/04/06 06:54:19;;;;;;;6.50;4.20;;;;;;;;;;5071089;28;20092;-84
2022/04/06 06:56:46;;;;;;;6.13;4.20;;;;;;;;;;5071547;28;20123;-84
2022/04/06 06:59:12;;;;;;;8.38;4.35;;;;;;;;;;5071382;28;20040;-84
2022/04/06 07:01:39;;;;;;;8.23;4.55;;;;;;;;;;5071342;28;20071;-84
2022/04/06 07:04:07;;;;;;;7.93;4.20;;;;;;;;;;5071252;28;20058;-85
2022/04/06 07:06:33;;;;;;;12.25;5.38;;;;;;;;;;5067973;28;20068;-85
2022/04/06 07:09:00;;;;;;;11.65;6.22;;;;;;;;;;5070538;28;20559;-85
2022/04/06 07:11:26;;;;;;;8.60;4.50;;;;;;;;;;5071331;28;20127;-86
2022/04/06 07:13:53;;;;;;;8.55;5.05;;;;;;;;;;5059114;28;20048;-87
2022/04/06 07:16:20;;;;;;;5.68;3.60;;;;;;;;;;5070602;28;20143;-87
2022/04/06 07:18:46;;;;;;;7.88;4.88;;;;;;;;;;5071039;28;20138;-86
2022/04/06 07:21:14;;;;;;;5.35;3.72;;;;;;;;;;5068569;28;20623;-85
2022/04/06 07:23:43;;;;;;;7.38;4.05;;;;;;;;;;5061920;28;20538;-86
2022/04/06 07:26:12;;;;;;;6.63;3.80;;;;;;;;;;5064721;28;20182;-86
2022/04/06 07:28:39;;;;;;;6.45;3.88;;;;;;;;;;5063963;28;20044;-85
2022/04/06 07:31:05;;;;;;;6.43;4.13;;;;;;;;;;5067183;28;20412;-86
2022/04/06 07:33:36;;;;;;;8.32;4.82;;;;;;;;;;5070116;28;20451;-84
2022/04/06 07:36:03;;;;;;;6.20;4.28;;;;;;;;;;5072490;28;20045;-85
2022/04/06 07:38:31;;;;;;;7.72;3.72;;;;;;;;;;5068391;28;20128;-85
2022/04/06 07:40:58;;;;;;;7.07;3.92;;;;;;;;;;5060591;28;20136;-84
2022/04/06 07:43:24;;;;;;;6.13;3.63;;;;;;;;;;5069863;28;20068;-84
2022/04/06 07:45:51;;;;;;;6.05;3.83;;;;;;;;;;5069721;28;20544;-85
2022/04/06 07:48:17;;;;;;;6.50;3.25;;;;;;;;;;5071090;28;20768;-84
2022/04/06 07:50:44;;;;;;;5.97;3.22;;;;;;;;;;5070977;28;20536;-84
2022/04/06 07:53:13;;;;;;;5.85;4.15;;;;;;;;;;5069871;28;20075;-83
2022/04/06 07:55:41;;;;;;;6.22;4.03;;;;;;;;;;5070288;28;20116;-86
2022/04/06 07:58:08;;;;;;;6.72;4.82;;;;;;;;;;5070120;28;20548;-84
2022/04/06 08:00:42;;;;;;;7.35;4.82;;;;;;;;;;5071335;28;20150;-85
2022/04/06 08:03:08;;;;;;;5.15;3.70;;;;;;;;;;5071232;28;20312;-83
2022/04/06 08:05:35;;;;;;;6.57;4.15;;;;;;;;;;5069522;28;20064;-86
2022/04/06 08:08:02;;;;;;;5.72;3.13;;;;;;;;;;5068962;28;20054;-85
2022/04/06 08:10:30;;;;;;;5.13;2.70;;;;;;;;;;5068388;28;20040;-85
2022/04/06 08:12:58;;;;;;;4.30;3.03;;;;;;;;;;5074792;28;20067;-84
2022/04/06 08:15:26;;;;;;;4.47;2.70;;;;;;;;;;5075777;28;20041;-85
2022/04/06 08:17:52;;;;;;;4.07;2.80;;;;;;;;;;5074762;28;20439;-85
2022/04/06 08:20:20;;;;;;;5.50;2.28;;;;;;;;;;5073289;28;20127;-85
2022/04/06 08:22:48;;;;;;;3.60;2.20;;;;;;;;;;5071651;28;20041;-85
2022/04/06 08:25:16;;;;;;;3.75;2.15;;;;;;;;;;5074482;28;20048;-85
2022/04/06 08:27:42;;;;;;;5.05;1.85;;;;;;;;;;5074078;28;20040;-84
2022/04/06 08:30:12;;;;;;;3.95;2.10;;;;;;;;;;5074588;28;20500;-85
2022/04/06 08:32:39;;;;;;;3.40;2.28;;;;;;;;;;5068558;28;20036;-85
2022/04/06 08:35:06;;;;;;;4.00;2.30;;;;;;;;;;5069126;28;20576;-84
2022/04/06 08:37:32;;;;;;;3.40;2.40;;;;;;;;;;5066516;28;20136;-83
2022/04/06 08:39:59;;;;;;;3.47;1.98;;;;;;;;;;5068313;28;20071;-84
2022/04/06 08:42:27;;;;;;;3.38;2.20;;;;;;;;;;5060203;28;20124;-86
2022/04/06 08:44:54;;;;;;;3.63;1.95;;;;;;;;;;5068456;28;20437;-84
2022/04/06 08:47:22;;;;;;;2.88;1.80;;;;;;;;;;5059312;28;20072;-85
2022/04/06 08:49:49;;;;;;;3.20;1.50;;;;;;;;;;5064932;28;20076;-84
2022/04/06 08:52:17;;;;;;;2.67;1.40;;;;;;;;;;5069790;28;20552;-84
2022/04/06 08:54:45;;;;;;;3.00;1.95;;;;;;;;;;5076474;28;20385;-85
2022/04/06 08:57:11;;;;;;;2.83;1.52;;;;;;;;;;5075498;28;20044;-83
2022/04/06 08:59:38;;;;;;;3.05;1.92;;;;;;;;;;5076617;28;20456;-85
2022/04/06 09:02:04;;;;;;;5.53;1.50;;;;;;;;;;5076912;28;20098;-84
2022/04/06 09:04:35;;;;;;;4.63;2.53;;;;;;;;;;5078129;28;20072;-84
2022/04/06 09:07:08;;;;;;;3.17;2.20;;;;;;;;;;5075378;28;20534;-85
2022/04/06 09:09:35;;;;;;;3.25;1.95;;;;;;;;;;5071990;28;20136;-84
2022/04/06 09:12:06;;;;;;;2.83;1.83;;;;;;;;;;5073801;28;21221;-85
2022/04/06 09:14:33;;;;;;;3.35;1.67;;;;;;;;;;5087484;28;20056;-86
2022/04/06 09:17:04;;;;;;;4.07;2.17;;;;;;;;;;5100613;28;20025;-85
2022/04/06 09:19:30;;;;;;;4.47;2.10;;;;;;;;;;5088709;28;20040;-83
2022/04/06 09:21:59;;;;;;;3.58;2.20;;;;;;;;;;5075008;28;20116;-84
2022/04/06 09:24:27;;;;;;;4.00;2.00;;;;;;;;;;5075035;28;20041;-84
2022/04/06 09:26:58;;;;;;;3.63;2.28;;;;;;;;;;5081255;28;20067;-84
2022/04/06 09:29:25;;;;;;;3.25;1.90;;;;;;;;;;5078731;28;20672;-84
2022/04/06 09:31:51;;;;;;;4.05;2.20;;;;;;;;;;5074291;28;20123;-83
2022/04/06 09:34:21;;;;;;;3.83;2.22;;;;;;;;;;5069538;28;20136;-83
2022/04/06 09:36:50;;;;;;;4.30;2.40;;;;;;;;;;5069926;28;20051;-85
2022/04/06 09:39:19;;;;;;;3.72;2.42;;;;;;;;;;5071665;28;20432;-84
2022/04/06 09:41:59;;;;;;;4.28;2.33;;;;;;;;;;5070500;28;20051;-84
2022/04/06 09:50:16;;;;;;;5.20;2.90;;;;;;;;;;5062553;28;20048;-83
2022/04/06 09:52:44;;;;;;;3.33;2.30;;;;;;;;;;5074082;28;20055;-84
2022/04/06 09:55:13;;;;;;;4.05;2.78;;;;;;;;;;5069878;28;20456;-84
2022/04/06 09:57:42;;;;;;;3.25;2.28;;;;;;;;;;5072651;28;20119;-84
2022/04/06 10:00:12;;;;;;;4.43;2.63;;;;;;;;;;5074186;28;20048;-84
2022/04/06 10:02:39;;;;;;;3.92;2.10;;;;;;;;;;5072014;28;20402;-84
2022/04/06 10:05:07;;;;;;;4.60;2.88;;;;;;;;;;5074073;28;20532;-83
2022/04/06 10:07:34;;;;;;;3.85;2.28;;;;;;;;;;5072024;28;20437;-83
2022/04/06 10:10:01;;;;;;;4.32;2.33;;;;;;;;;;5073841;28;20119;-83
2022/04/06 10:12:29;;;;;;;5.35;2.55;;;;;;;;;;5067334;28;20128;-83
2022/04/06 10:14:56;;;;;;;5.25;2.63;;;;;;;;;;5070795;28;20037;-83
2022/04/06 10:17:23;;;;;;;3.60;2.40;;;;;;;;;;5073576;28;20123;-82
2022/04/06 10:19:56;;;;;;;3.30;2.28;;;;;;;;;;5073988;28;20437;-82
2022/04/06 10:22:26;;;;;;;3.25;2.00;;;;;;;;;;5069738;28;20090;-82
2022/04/06 10:24:58;;;;;;;3.17;2.08;;;;;;;;;;5071275;28;20136;-82
2022/04/06 10:27:28;;;;;;;3.95;2.00;;;;;;;;;;5072819;28;20104;-82
2022/04/06 10:30:15;;;;;;;3.65;2.10;;;;;;;;;;5073910;28;20544;-83
2022/04/06 10:32:43;;;;;;;2.83;1.90;;;;;;;;;;5058808;28;20048;-83
2022/04/06 10:35:21;;;;;;;4.40;2.35;;;;;;;;;;5070180;28;20922;-82
2022/04/06 10:37:52;;;;;;;3.60;2.50;;;;;;;;;;5070614;28;20123;-80
2022/04/06 10:40:19;;;;;;;3.25;2.20;;;;;;;;;;5067675;28;20048;-81
2022/04/06 10:42:46;;;;;;;3.50;2.28;;;;;;;;;;5068219;28;20083;-81
2022/04/06 10:45:36;;;;;;;3.53;2.17;;;;;;;;;;5071076;28;20144;-82
2022/04/06 10:48:10;;;;;;;4.28;2.40;;;;;;;;;;5060122;28;20513;-80
2022/04/06 10:50:37;;;;;;;4.15;2.42;;;;;;;;;;5070616;28;20392;-83
2022/04/06 10:53:31;;;;;;;3.40;1.92;;;;;;;;;;5073047;28;20448;-83
2022/04/06 10:56:01;;;;;;;3.80;2.25;;;;;;;;;;5072384;28;20488;-82
2022/04/06 10:58:27;;;;;;;4.10;2.58;;;;;;;;;;5068819;28;20036;-82
2022/04/06 11:01:18;;;;;;;3.38;2.10;;;;;;;;;;5073305;28;20123;-83
2022/04/06 11:03:56;;;;;;;4.03;2.05;;;;;;;;;;5067721;28;20045;-83
2022/04/06 11:06:56;;;;;;;3.22;2.17;;;;;;;;;;5069151;28;20048;-82
2022/04/06 11:12:16;;;;;;;3.47;2.00;;;;;;;;;;5017143;28;20041;-83
2022/04/06 11:14:44;;;;;;;3.05;1.90;;;;;;;;;;5026822;28;20331;-82
2022/04/06 11:17:42;;;;;;;4.15;2.03;;;;;;;;;;5032757;28;20195;-82
2022/04/06 11:20:10;;;;;;;3.05;2.08;;;;;;;;;;5019786;28;20053;-83
2022/04/06 11:22:39;;;;;;;3.20;2.03;;;;;;;;;;5032342;28;20136;-83
2022/04/06 11:25:11;;;;;;;3.40;2.15;;;;;;;;;;5023167;28;20433;-82
2022/04/06 11:27:39;;;;;;;5.40;1.80;;;;;;;;;;5027290;28;20041;-81
2022/04/06 11:30:07;;;;;;;2.78;1.80;;;;;;;;;;5030032;28;20124;-82
2022/04/06 11:32:34;;;;;;;3.00;1.50;;;;;;;;;;5016306;28;20125;-81
2022/04/06 11:35:04;;;;;;;3.38;2.00;;;;;;;;;;5017871;28;20049;-80
2022/04/06 11:37:31;;;;;;;2.50;1.80;;;;;;;;;;5032364;28;20417;-82
2022/04/06 11:39:59;;;;;;;2.72;1.73;;;;;;;;;;5032642;28;20514;-82
2022/04/06 11:42:26;;;;;;;2.55;1.60;;;;;;;;;;5035072;28;20080;-83
2022/04/06 11:44:53;;;;;;;2.58;1.50;;;;;;;;;;5034333;28;20128;-84
2022/04/06 11:47:30;;;;;;;3.95;1.50;;;;;;;;;;5035487;28;20128;-80
2022/04/06 11:49:57;;;;;;;2.38;1.40;;;;;;;;;;5033529;28;20120;-82
2022/04/06 11:52:26;;;;;;;3.58;1.40;;;;;;;;;;5031371;28;20081;-83
2022/04/06 11:54:53;;;;;;;2.70;1.38;;;;;;;;;;5029310;28;20120;-83
2022/04/06 11:57:21;;;;;;;2.97;1.63;;;;;;;;;;5031694;28;20081;-82
2022/04/06 11:59:54;;;;;;;2.17;1.10;;;;;;;;;;5031920;28;20144;-82
2022/04/06 12:02:21;;;;;;;2.20;1.30;;;;;;;;;;5029287;28;20544;-80
2022/04/06 12:05:00;;;;;;;4.30;1.30;;;;;;;;;;5032151;28;20075;-83
2022/04/06 12:07:34;;;;;;;4.57;1.35;;;;;;;;;;5049025;28;20100;-84
2022/04/06 12:10:01;;;;;;;1.70;1.10;;;;;;;;;;5068279;28;20121;-81
2022/04/06 12:12:28;;;;;;;1.60;1.10;;;;;;;;;;5073292;28;20119;-81
2022/04/06 12:14:54;;;;;;;3.42;1.13;;;;;;;;;;5072749;28;20132;-82
2022/04/06 12:17:21;;;;;;;2.42;1.30;;;;;;;;;;5069279;28;20140;-82
2022/04/06 12:19:48;;;;;;;1.73;0.85;;;;;;;;;;5072371;28;20096;-83
2022/04/06 12:22:15;;;;;;;2.53;0.82;;;;;;;;;;5067675;28;20202;-83
2022/04/06 12:24:44;;;;;;;1.77;1.05;;;;;;;;;;5066758;28;20666;-82
2022/04/06 12:27:11;;;;;;;1.38;0.75;;;;;;;;;;5073535;28;20072;-81
2022/04/06 12:29:39;;;;;;;1.48;0.90;;;;;;;;;;5077075;28;20041;-82
2022/04/06 12:32:06;;;;;;;1.55;0.75;;;;;;;;;;5073122;28;20157;-82
2022/04/06 12:34:35;;;;;;;0.80;0.70;;;;;;;;;;5072519;28;20049;-83
2022/04/06 12:37:29;;;;;;;2.15;1.20;;;;;;;;;;5072629;28;20040;-80
2022/04/06 12:39:54;;;;;;;1.42;0.85;;;;;;;;;;5074810;28;20052;-81
2022/04/06 12:42:21;;;;;;;1.38;0.70;;;;;;;;;;5072530;28;20643;-81
2022/04/06 12:45:01;;;;;;;1.15;0.75;;;;;;;;;;5065165;28;20132;-81
2022/04/06 12:47:27;;;;;;;0.65;0.57;;;;;;;;;;5068391;28;20416;-82
2022/04/06 12:50:15;;;;;;;1.30;0.70;;;;;;;;;;5071380;28;20119;-81
2022/04/06 12:52:42;;;;;;;2.20;1.08;;;;;;;;;;5071846;28;20169;-81
2022/04/06 12:55:12;;;;;;;1.70;0.70;;;;;;;;;;5072926;28;20555;-80
2022/04/06 12:57:39;;;;;;;1.73;0.95;;;;;;;;;;5074485;28;20506;-81
2022/04/06 13:00:09;;;;;;;1.95;0.70;;;;;;;;;;5075787;28;20080;-81
2022/04/06 13:02:36;;;;;;;0.90;0.65;;;;;;;;;;5073770;28;20088;-80
2022/04/06 13:05:05;;;;;;;2.22;0.70;;;;;;;;;;5072848;28;20424;-81
2022/04/06 13:07:40;;;;;;;0.75;0.50;;;;;;;;;;5073942;28;20762;-80
2022/04/06 13:10:10;;;;;;;0.82;0.50;;;;;;;;;;5075262;28;20071;-80
2022/04/06 13:12:38;;;;;;;1.83;0.90;;;;;;;;;;5065610;28;20084;-81
2022/04/06 13:15:06;;;;;;;1.85;1.00;;;;;;;;;;5077213;28;20127;-81
2022/04/06 13:17:33;;;;;;;1.77;0.90;;;;;;;;;;5068732;28;20123;-81
2022/04/06 13:20:00;;;;;;;2.67;0.90;;;;;;;;;;5074214;28;20076;-81
2022/04/06 13:22:26;;;;;;;0.95;0.70;;;;;;;;;;5073575;28;20071;-81
2022/04/06 13:24:53;;;;;;;1.05;0.73;;;;;;;;;;5076269;28;20078;-81
2022/04/06 13:27:22;;;;;;;1.17;0.68;;;;;;;;;;5058258;28;20148;-81
2022/04/06 13:29:49;;;;;;;1.17;0.80;;;;;;;;;;5074172;28;20040;-80
2022/04/06 13:32:16;;;;;;;1.00;0.68;;;;;;;;;;5071245;28;20490;-81
2022/04/06 13:34:43;;;;;;;1.52;1.10;;;;;;;;;;5058934;28;20136;-80
2022/04/06 13:37:11;;;;;;;1.20;0.85;;;;;;;;;;5073933;28;20391;-81
2022/04/06 13:39:38;;;;;;;1.63;0.80;;;;;;;;;;5075751;28;20040;-82
2022/04/06 13:42:05;;;;;;;1.08;0.60;;;;;;;;;;5076699;28;20072;-81
2022/04/06 13:44:35;;;;;;;1.83;1.02;;;;;;;;;;5075557;28;20519;-83
2022/04/06 13:47:03;;;;;;;2.30;0.82;;;;;;;;;;5075495;28;20041;-80
2022/04/06 13:49:30;;;;;;;1.38;0.80;;;;;;;;;;5074679;28;20132;-80
2022/04/06 13:51:56;;;;;;;1.42;0.80;;;;;;;;;;5067643;28;20370;-79
2022/04/06 13:54:23;;;;;;;0.80;0.73;;;;;;;;;;5075210;28;20075;-83
2022/04/06 13:56:50;;;;;;;0.77;0.50;;;;;;;;;;5075098;28;20127;-82
2022/04/06 13:59:17;;;;;;;1.25;0.68;;;;;;;;;;5073109;28;20144;-82
2022/04/06 14:01:45;;;;;;;1.58;0.60;;;;;;;;;;5071581;28;20119;-82
2022/04/06 14:04:13;;;;;;;1.10;0.60;;;;;;;;;;5070683;28;20123;-82
2022/04/06 14:06:40;;;;;;;1.60;0.50;;;;;;;;;;5068633;28;20113;-82
2022/04/06 14:09:09;;;;;;;0.98;0.50;;;;;;;;;;5073881;28;20152;-83
2022/04/06 14:11:36;;;;;;;1.38;0.73;;;;;;;;;;5078360;28;20314;-84
2022/04/06 14:14:02;;;;;;;1.70;0.60;;;;;;;;;;5076577;28;20855;-83
2022/04/06 14:16:30;;;;;;;1.63;0.77;;;;;;;;;;5075382;28;20119;-83
2022/04/06 14:18:59;;;;;;;1.08;0.73;;;;;;;;;;5078779;28;20657;-83
2022/04/06 14:21:26;;;;;;;2.20;0.73;;;;;;;;;;5072495;28;20068;-84
2022/04/06 14:23:53;;;;;;;1.90;0.68;;;;;;;;;;5073039;28;20044;-87
2022/04/06 14:26:20;;;;;;;1.55;0.70;;;;;;;;;;5067824;28;20040;-86
2022/04/06 14:28:47;;;;;;;2.20;0.50;;;;;;;;;;5075008;28;20036;-81
2022/04/06 14:31:14;;;;;;;1.52;0.70;;;;;;;;;;5073549;28;20040;-81
2022/04/06 14:33:40;;;;;;;1.27;0.75;;;;;;;;;;5073125;28;20047;-83
2022/04/06 14:36:09;;;;;;;0.73;0.50;;;;;;;;;;5083486;28;20100;-82
2022/04/06 14:38:36;;;;;;;1.65;0.65;;;;;;;;;;5076369;28;20132;-83
2022/04/06 14:41:05;;;;;;;2.00;0.85;;;;;;;;;;5072499;28;20132;-82
2022/04/06 14:43:32;;;;;;;2.08;0.82;;;;;;;;;;5072172;28;20960;-82
2022/04/06 14:45:59;;;;;;;1.58;0.60;;;;;;;;;;5070004;28;20037;-82
2022/04/06 14:48:26;;;;;;;2.45;0.90;;;;;;;;;;5069501;28;20123;-82
2022/04/06 14:50:53;;;;;;;1.02;0.57;;;;;;;;;;5071941;28;20476;-82
2022/04/06 14:53:21;;;;;;;1.88;0.50;;;;;;;;;;5072536;28;20040;-82
2022/04/06 14:55:48;;;;;;;1.80;0.60;;;;;;;;;;5065495;28;20072;-81
2022/04/06 14:58:14;;;;;;;1.02;0.60;;;;;;;;;;5066398;28;20048;-82
2022/04/06 15:00:42;;;;;;;1.65;0.80;;;;;;;;;;5067018;28;20102;-81